sensor_id;sensor_type;location;lat;lon;timestamp;pressure;altitude;pressure_sealevel;temperature;humidity
62779;BME280;48821;48.796;2.396;2023-02-11T00:00:16;103670.13;;;7.28;63.65
62779;BME280;48821;48.796;2.396;2023-02-11T00:01:30;103676.16;;;7.26;63.52
62779;BME280;48821;48.796;2.396;2023-02-11T00:02:43;103667.38;;;7.24;63.95
62779;BME280;48821;48.796;2.396;2023-02-11T00:03:55;103669.06;;;7.22;63.59
62779;BME280;48821;48.796;2.396;2023-02-11T00:05:06;103667.22;;;7.19;63.76
62779;BME280;48821;48.796;2.396;2023-02-11T00:06:18;103668.03;;;7.16;64.00
62779;BME280;48821;48.796;2.396;2023-02-11T00:07:31;103669.78;;;7.16;63.55
62779;BME280;48821;48.796;2.396;2023-02-11T00:08:42;103663.56;;;7.12;64.06
62779;BME280;48821;48.796;2.396;2023-02-11T00:09:54;103663.53;;;7.11;63.52
62779;BME280;48821;48.796;2.396;2023-02-11T00:11:06;103664.34;;;7.09;63.69
62779;BME280;48821;48.796;2.396;2023-02-11T00:12:18;103661.66;;;7.06;63.86
62779;BME280;48821;48.796;2.396;2023-02-11T00:13:30;103661.63;;;7.05;64.03
62779;BME280;48821;48.796;2.396;2023-02-11T00:14:42;103659.81;;;7.04;64.07
62779;BME280;48821;48.796;2.396;2023-02-11T00:15:55;103653.66;;;7.02;63.83
62779;BME280;48821;48.796;2.396;2023-02-11T00:17:06;103660.66;;;7.01;64.07
62779;BME280;48821;48.796;2.396;2023-02-11T00:18:18;103653.59;;;6.98;64.26
62779;BME280;48821;48.796;2.396;2023-02-11T00:19:30;103649.19;;;6.97;64.01
62779;BME280;48821;48.796;2.396;2023-02-11T00:20:43;103652.63;;;6.96;63.90
62779;BME280;48821;48.796;2.396;2023-02-11T00:21:54;103645.66;;;6.95;63.97
62779;BME280;48821;48.796;2.396;2023-02-11T00:23:06;103653.47;;;6.94;64.07
62779;BME280;48821;48.796;2.396;2023-02-11T00:24:17;103653.41;;;6.92;64.49
62779;BME280;48821;48.796;2.396;2023-02-11T00:25:30;103654.25;;;6.91;64.14
62779;BME280;48821;48.796;2.396;2023-02-11T00:26:41;103651.59;;;6.90;64.19
62779;BME280;48821;48.796;2.396;2023-02-11T00:27:53;103656.78;;;6.88;64.29
62779;BME280;48821;48.796;2.396;2023-02-11T00:29:05;103648.94;;;6.88;64.57
62779;BME280;48821;48.796;2.396;2023-02-11T00:30:17;103654.09;;;6.86;64.43
62779;BME280;48821;48.796;2.396;2023-02-11T00:31:29;103652.31;;;6.84;64.08
62779;BME280;48821;48.796;2.396;2023-02-11T00:32:41;103648.78;;;6.83;64.57
62779;BME280;48821;48.796;2.396;2023-02-11T00:33:54;103650.53;;;6.83;64.51
62779;BME280;48821;48.796;2.396;2023-02-11T00:35:06;103649.59;;;6.81;64.28
62779;BME280;48821;48.796;2.396;2023-02-11T00:36:24;103651.31;;;6.80;64.71
62779;BME280;48821;48.796;2.396;2023-02-11T00:37:35;103650.38;;;6.78;64.82
62779;BME280;48821;48.796;2.396;2023-02-11T00:38:48;103647.78;;;6.78;64.40
62779;BME280;48821;48.796;2.396;2023-02-11T00:39:59;103644.22;;;6.76;64.31
62779;BME280;48821;48.796;2.396;2023-02-11T00:41:12;103650.28;;;6.75;64.58
62779;BME280;48821;48.796;2.396;2023-02-11T00:42:23;103646.78;;;6.74;64.45
62779;BME280;48821;48.796;2.396;2023-02-11T00:43:35;103643.22;;;6.72;64.26
62779;BME280;48821;48.796;2.396;2023-02-11T00:44:47;103651.94;;;6.71;64.81
62779;BME280;48821;48.796;2.396;2023-02-11T00:45:59;103650.16;;;6.70;64.66
62779;BME280;48821;48.796;2.396;2023-02-11T00:47:12;103649.22;;;6.68;64.48
62779;BME280;48821;48.796;2.396;2023-02-11T00:48:23;103645.72;;;6.68;64.41
62779;BME280;48821;48.796;2.396;2023-02-11T00:49:35;103647.44;;;6.67;64.83
62779;BME280;48821;48.796;2.396;2023-02-11T00:50:48;103639.56;;;6.66;64.51
62779;BME280;48821;48.796;2.396;2023-02-11T00:51:58;103635.16;;;6.64;64.46
62779;BME280;48821;48.796;2.396;2023-02-11T00:53:10;103637.72;;;6.63;64.86
62779;BME280;48821;48.796;2.396;2023-02-11T00:54:22;103641.16;;;6.62;64.98
62779;BME280;48821;48.796;2.396;2023-02-11T00:55:34;103642.84;;;6.60;64.87
62779;BME280;48821;48.796;2.396;2023-02-11T00:56:47;103645.44;;;6.58;64.45
62779;BME280;48821;48.796;2.396;2023-02-11T00:57:59;103638.41;;;6.57;64.69
62779;BME280;48821;48.796;2.396;2023-02-11T00:59:11;103641.03;;;6.57;64.70
62779;BME280;48821;48.796;2.396;2023-02-11T01:00:23;103640.09;;;6.55;64.62
62779;BME280;48821;48.796;2.396;2023-02-11T01:01:35;103643.56;;;6.54;64.40
62779;BME280;48821;48.796;2.396;2023-02-11T01:02:47;103647.00;;;6.53;64.72
62779;BME280;48821;48.796;2.396;2023-02-11T01:03:59;103642.59;;;6.52;64.99
62779;BME280;48821;48.796;2.396;2023-02-11T01:05:11;103638.25;;;6.51;64.79
62779;BME280;48821;48.796;2.396;2023-02-11T01:06:23;103640.81;;;6.49;64.88
62779;BME280;48821;48.796;2.396;2023-02-11T01:07:35;103640.75;;;6.48;64.83
62779;BME280;48821;48.796;2.396;2023-02-11T01:08:47;103638.03;;;6.45;65.16
62779;BME280;48821;48.796;2.396;2023-02-11T01:09:59;103633.69;;;6.45;64.98
62779;BME280;48821;48.796;2.396;2023-02-11T01:11:17;103631.94;;;6.44;64.99
62779;BME280;48821;48.796;2.396;2023-02-11T01:12:29;103631.06;;;6.44;64.68
62779;BME280;48821;48.796;2.396;2023-02-11T01:13:41;103630.97;;;6.42;64.78
62779;BME280;48821;48.796;2.396;2023-02-11T01:14:53;103633.53;;;6.39;64.95
62779;BME280;48821;48.796;2.396;2023-02-11T01:16:07;103633.44;;;6.37;65.13
62779;BME280;48821;48.796;2.396;2023-02-11T01:17:18;103633.41;;;6.36;64.94
62779;BME280;48821;48.796;2.396;2023-02-11T01:18:30;103636.03;;;6.36;65.15
62779;BME280;48821;48.796;2.396;2023-02-11T01:19:44;103639.47;;;6.35;65.42
62779;BME280;48821;48.796;2.396;2023-02-11T01:20:56;103634.19;;;6.33;64.81
62779;BME280;48821;48.796;2.396;2023-02-11T01:22:08;103641.16;;;6.33;65.01
62779;BME280;48821;48.796;2.396;2023-02-11T01:23:20;103638.53;;;6.33;64.78
62779;BME280;48821;48.796;2.396;2023-02-11T01:24:31;103636.78;;;6.32;65.20
62779;BME280;48821;48.796;2.396;2023-02-11T01:25:44;103633.22;;;6.29;65.25
62779;BME280;48821;48.796;2.396;2023-02-11T01:26:56;103629.72;;;6.29;65.01
62779;BME280;48821;48.796;2.396;2023-02-11T01:28:15;103635.78;;;6.28;65.14
62779;BME280;48821;48.796;2.396;2023-02-11T01:29:26;103634.84;;;6.26;65.20
62779;BME280;48821;48.796;2.396;2023-02-11T01:30:38;103633.06;;;6.25;65.32
62779;BME280;48821;48.796;2.396;2023-02-11T01:31:50;103632.19;;;6.24;65.37
62779;BME280;48821;48.796;2.396;2023-02-11T01:33:02;103632.13;;;6.23;65.10
62779;BME280;48821;48.796;2.396;2023-02-11T01:34:15;103626.03;;;6.22;65.30
62779;BME280;48821;48.796;2.396;2023-02-11T01:35:26;103627.69;;;6.20;65.34
62779;BME280;48821;48.796;2.396;2023-02-11T01:36:39;103635.53;;;6.20;65.02
62779;BME280;48821;48.796;2.396;2023-02-11T01:37:50;103626.75;;;6.18;65.54
62779;BME280;48821;48.796;2.396;2023-02-11T01:39:02;103627.63;;;6.17;65.33
62779;BME280;48821;48.796;2.396;2023-02-11T01:40:16;103620.59;;;6.16;65.22
62779;BME280;48821;48.796;2.396;2023-02-11T01:41:27;103631.00;;;6.14;65.21
62779;BME280;48821;48.796;2.396;2023-02-11T01:42:39;103631.84;;;6.13;65.22
62779;BME280;48821;48.796;2.396;2023-02-11T01:43:51;103623.97;;;6.12;65.30
62779;BME280;48821;48.796;2.396;2023-02-11T01:46:52;103618.63;;;6.08;65.65
62779;BME280;48821;48.796;2.396;2023-02-11T01:48:02;103623.84;;;6.08;64.82
62779;BME280;48821;48.796;2.396;2023-02-11T01:49:21;103616.84;;;6.07;65.05
62779;BME280;48821;48.796;2.396;2023-02-11T01:50:36;103620.28;;;6.06;64.94
62779;BME280;48821;48.796;2.396;2023-02-11T01:52:02;103625.47;;;6.05;65.00
62779;BME280;48821;48.796;2.396;2023-02-11T01:53:16;103627.09;;;6.03;65.00
62779;BME280;48821;48.796;2.396;2023-02-11T01:54:51;103627.09;;;6.03;65.37
62779;BME280;48821;48.796;2.396;2023-02-11T01:56:23;103627.06;;;6.01;65.42
62779;BME280;48821;48.796;2.396;2023-02-11T01:57:56;103620.06;;;6.00;64.96
62779;BME280;48821;48.796;2.396;2023-02-11T01:59:14;103621.75;;;5.98;65.50
62779;BME280;48821;48.796;2.396;2023-02-11T02:00:36;103619.97;;;5.97;65.14
62779;BME280;48821;48.796;2.396;2023-02-11T02:01:53;103619.09;;;5.96;65.35
62779;BME280;48821;48.796;2.396;2023-02-11T02:03:13;103614.69;;;5.95;65.49
62779;BME280;48821;48.796;2.396;2023-02-11T02:04:32;103620.75;;;5.94;65.75
62779;BME280;48821;48.796;2.396;2023-02-11T02:05:56;103621.66;;;5.95;65.34
62779;BME280;48821;48.796;2.396;2023-02-11T02:07:18;103620.69;;;5.93;64.83
62779;BME280;48821;48.796;2.396;2023-02-11T02:09:57;103615.44;;;5.91;65.30
62779;BME280;48821;48.796;2.396;2023-02-11T02:11:09;103607.50;;;5.88;65.06
62779;BME280;48821;48.796;2.396;2023-02-11T02:12:21;103612.72;;;5.88;65.32
62779;BME280;48821;48.796;2.396;2023-02-11T02:13:33;103613.56;;;5.87;65.04
62779;BME280;48821;48.796;2.396;2023-02-11T02:14:44;103617.84;;;5.85;65.37
62779;BME280;48821;48.796;2.396;2023-02-11T02:15:59;103610.84;;;5.84;65.23
62779;BME280;48821;48.796;2.396;2023-02-11T02:17:35;103610.81;;;5.82;65.10
62779;BME280;48821;48.796;2.396;2023-02-11T02:22:49;103616.69;;;5.77;65.26
62779;BME280;48821;48.796;2.396;2023-02-11T02:25:31;103612.16;;;5.71;65.15
62779;BME280;48821;48.796;2.396;2023-02-11T02:29:10;103606.78;;;5.66;65.34
62779;BME280;48821;48.796;2.396;2023-02-11T02:30:53;103607.63;;;5.65;65.19
62779;BME280;48821;48.796;2.396;2023-02-11T02:34:57;103603.09;;;5.61;65.44
62779;BME280;48821;48.796;2.396;2023-02-11T02:35:50;103603.06;;;5.59;65.11
62779;BME280;48821;48.796;2.396;2023-02-11T02:37:14;103603.88;;;5.58;65.25
62779;BME280;48821;48.796;2.396;2023-02-11T02:39:47;103590.75;;;5.55;65.57
62779;BME280;48821;48.796;2.396;2023-02-11T02:41:09;103602.06;;;5.56;65.26
62779;BME280;48821;48.796;2.396;2023-02-11T02:42:24;103593.38;;;5.55;65.32
62779;BME280;48821;48.796;2.396;2023-02-11T02:43:46;103595.91;;;5.54;65.24
62779;BME280;48821;48.796;2.396;2023-02-11T02:44:59;103594.16;;;5.53;65.43
62779;BME280;48821;48.796;2.396;2023-02-11T02:46:10;103596.75;;;5.53;65.20
62779;BME280;48821;48.796;2.396;2023-02-11T02:47:22;103600.19;;;5.51;65.38
62779;BME280;48821;48.796;2.396;2023-02-11T02:48:36;103597.53;;;5.50;65.42
62779;BME280;48821;48.796;2.396;2023-02-11T02:49:48;103596.63;;;5.49;65.26
62779;BME280;48821;48.796;2.396;2023-02-11T02:54:45;103590.41;;;5.46;65.40
62779;BME280;48821;48.796;2.396;2023-02-11T02:56:13;103578.19;;;5.43;65.49
62779;BME280;48821;48.796;2.396;2023-02-11T03:02:25;103591.88;;;5.37;65.48
62779;BME280;48821;48.796;2.396;2023-02-11T03:03:48;103584.03;;;5.36;65.64
62779;BME280;48821;48.796;2.396;2023-02-11T03:05:05;103589.25;;;5.36;65.66
62779;BME280;48821;48.796;2.396;2023-02-11T03:07:50;103588.34;;;5.35;65.81
62779;BME280;48821;48.796;2.396;2023-02-11T03:09:10;103582.22;;;5.35;65.61
62779;BME280;48821;48.796;2.396;2023-02-11T03:10:30;103583.94;;;5.34;65.31
62779;BME280;48821;48.796;2.396;2023-02-11T03:11:44;103582.19;;;5.33;65.37
62779;BME280;48821;48.796;2.396;2023-02-11T03:12:56;103578.69;;;5.33;65.62
62779;BME280;48821;48.796;2.396;2023-02-11T03:14:11;103575.19;;;5.32;65.75
62779;BME280;48821;48.796;2.396;2023-02-11T03:15:26;103583.81;;;5.31;65.60
62779;BME280;48821;48.796;2.396;2023-02-11T03:16:38;103577.75;;;5.31;65.36
62779;BME280;48821;48.796;2.396;2023-02-11T03:17:52;103587.28;;;5.30;65.43
62779;BME280;48821;48.796;2.396;2023-02-11T03:20:21;103593.41;;;5.31;65.48
62779;BME280;48821;48.796;2.396;2023-02-11T03:21:34;103584.59;;;5.28;65.51
62779;BME280;48821;48.796;2.396;2023-02-11T03:22:55;103584.59;;;5.28;65.51
62779;BME280;48821;48.796;2.396;2023-02-11T03:24:18;103583.75;;;5.28;65.60
62779;BME280;48821;48.796;2.396;2023-02-11T03:25:36;103590.69;;;5.27;65.54
62779;BME280;48821;48.796;2.396;2023-02-11T03:26:51;103590.63;;;5.26;65.60
62779;BME280;48821;48.796;2.396;2023-02-11T03:28:22;103589.75;;;5.25;65.51
62779;BME280;48821;48.796;2.396;2023-02-11T03:29:58;103586.25;;;5.25;65.27
62779;BME280;48821;48.796;2.396;2023-02-11T03:32:36;103580.91;;;5.22;65.84
62779;BME280;48821;48.796;2.396;2023-02-11T03:34:05;103574.88;;;5.23;65.78
62779;BME280;48821;48.796;2.396;2023-02-11T03:35:23;103570.44;;;5.20;65.39
62779;BME280;48821;48.796;2.396;2023-02-11T03:36:59;103574.78;;;5.21;65.84
62779;BME280;48821;48.796;2.396;2023-02-11T03:38:17;103577.34;;;5.20;65.48
62779;BME280;48821;48.796;2.396;2023-02-11T03:39:46;103569.50;;;5.18;65.58
62779;BME280;48821;48.796;2.396;2023-02-11T03:41:01;103571.25;;;5.19;65.69
62779;BME280;48821;48.796;2.396;2023-02-11T03:42:15;103575.56;;;5.18;65.76
62779;BME280;48821;48.796;2.396;2023-02-11T03:43:56;103572.03;;;5.16;65.63
62779;BME280;48821;48.796;2.396;2023-02-11T03:45:11;103572.03;;;5.16;65.68
62779;BME280;48821;48.796;2.396;2023-02-11T03:46:30;103578.97;;;5.16;65.20
62779;BME280;48821;48.796;2.396;2023-02-11T03:47:47;103578.09;;;5.15;65.61
62779;BME280;48821;48.796;2.396;2023-02-11T03:49:09;103571.09;;;5.14;65.63
62779;BME280;48821;48.796;2.396;2023-02-11T03:50:25;103571.09;;;5.14;65.67
62779;BME280;48821;48.796;2.396;2023-02-11T03:51:37;103571.03;;;5.13;65.84
62779;BME280;48821;48.796;2.396;2023-02-11T03:52:50;103572.75;;;5.12;65.76
62779;BME280;48821;48.796;2.396;2023-02-11T03:54:05;103570.97;;;5.11;65.35
62779;BME280;48821;48.796;2.396;2023-02-11T03:55:19;103576.25;;;5.13;65.53
62779;BME280;48821;48.796;2.396;2023-02-11T03:56:37;103570.97;;;5.11;65.55
62779;BME280;48821;48.796;2.396;2023-02-11T03:57:50;103566.59;;;5.10;65.23
62779;BME280;48821;48.796;2.396;2023-02-11T03:59:02;103565.72;;;5.10;66.00
62779;BME280;48821;48.796;2.396;2023-02-11T04:00:14;103574.44;;;5.10;65.86
62779;BME280;48821;48.796;2.396;2023-02-11T04:01:26;103574.38;;;5.09;65.60
62779;BME280;48821;48.796;2.396;2023-02-11T04:02:39;103576.09;;;5.08;65.44
62779;BME280;48821;48.796;2.396;2023-02-11T04:03:51;103576.09;;;5.08;65.79
62779;BME280;48821;48.796;2.396;2023-02-11T04:05:08;103577.81;;;5.07;65.65
62779;BME280;48821;48.796;2.396;2023-02-11T04:06:19;103579.53;;;5.07;65.74
62779;BME280;48821;48.796;2.396;2023-02-11T04:07:32;103582.91;;;5.04;65.84
62779;BME280;48821;48.796;2.396;2023-02-11T04:08:43;103576.78;;;5.04;65.96
62779;BME280;48821;48.796;2.396;2023-02-11T04:09:56;103575.94;;;5.03;65.46
62779;BME280;48821;48.796;2.396;2023-02-11T04:11:07;103582.00;;;5.04;65.60
62779;BME280;48821;48.796;2.396;2023-02-11T04:12:19;103578.53;;;5.03;65.88
62779;BME280;48821;48.796;2.396;2023-02-11T04:13:31;103577.63;;;5.03;65.73
62779;BME280;48821;48.796;2.396;2023-02-11T04:14:43;103578.47;;;5.02;65.90
62779;BME280;48821;48.796;2.396;2023-02-11T04:15:55;103576.72;;;5.01;65.49
62779;BME280;48821;48.796;2.396;2023-02-11T04:17:07;103574.91;;;5.00;65.95
62779;BME280;48821;48.796;2.396;2023-02-11T04:18:19;103580.13;;;5.00;65.21
62779;BME280;48821;48.796;2.396;2023-02-11T04:19:30;103581.84;;;4.99;65.55
62779;BME280;48821;48.796;2.396;2023-02-11T04:20:42;103581.78;;;4.98;65.54
62779;BME280;48821;48.796;2.396;2023-02-11T04:21:53;103585.31;;;4.98;65.65
62779;BME280;48821;48.796;2.396;2023-02-11T04:23:05;103587.81;;;4.97;66.09
62779;BME280;48821;48.796;2.396;2023-02-11T04:24:19;103594.78;;;4.96;65.76
62779;BME280;48821;48.796;2.396;2023-02-11T04:25:31;103587.81;;;4.97;65.69
62779;BME280;48821;48.796;2.396;2023-02-11T04:26:43;103587.78;;;4.95;65.68
62779;BME280;48821;48.796;2.396;2023-02-11T04:27:55;103593.00;;;4.95;65.87
62779;BME280;48821;48.796;2.396;2023-02-11T04:29:07;103598.22;;;4.95;65.61
62779;BME280;48821;48.796;2.396;2023-02-11T04:30:20;103592.09;;;4.94;65.59
62779;BME280;48821;48.796;2.396;2023-02-11T04:31:32;103596.41;;;4.94;65.77
62779;BME280;48821;48.796;2.396;2023-02-11T04:32:44;103592.94;;;4.93;65.60
62779;BME280;48821;48.796;2.396;2023-02-11T04:33:56;103592.94;;;4.93;65.43
62779;BME280;48821;48.796;2.396;2023-02-11T04:35:08;103593.78;;;4.92;65.75
62779;BME280;48821;48.796;2.396;2023-02-11T04:36:21;103587.66;;;4.92;65.74
62779;BME280;48821;48.796;2.396;2023-02-11T04:37:33;103582.44;;;4.92;65.85
62779;BME280;48821;48.796;2.396;2023-02-11T04:38:44;103585.00;;;4.90;65.71
62779;BME280;48821;48.796;2.396;2023-02-11T04:39:56;103586.72;;;4.90;65.78
62779;BME280;48821;48.796;2.396;2023-02-11T04:41:08;103596.25;;;4.89;65.80
62779;BME280;48821;48.796;2.396;2023-02-11T04:42:22;103601.47;;;4.89;65.58
62779;BME280;48821;48.796;2.396;2023-02-11T04:43:33;103597.09;;;4.88;65.87
62779;BME280;48821;48.796;2.396;2023-02-11T04:44:45;103592.78;;;4.89;65.75
62779;BME280;48821;48.796;2.396;2023-02-11T04:45:57;103590.09;;;4.87;65.72
62779;BME280;48821;48.796;2.396;2023-02-11T04:47:09;103594.41;;;4.87;65.88
62779;BME280;48821;48.796;2.396;2023-02-11T04:48:24;103595.31;;;4.87;65.84
62779;BME280;48821;48.796;2.396;2023-02-11T04:49:35;103598.78;;;4.86;65.73
62779;BME280;48821;48.796;2.396;2023-02-11T04:50:47;103593.56;;;4.86;65.63
62779;BME280;48821;48.796;2.396;2023-02-11T04:51:59;103596.09;;;4.84;65.90
62779;BME280;48821;48.796;2.396;2023-02-11T04:53:11;103603.00;;;4.84;65.55
62779;BME280;48821;48.796;2.396;2023-02-11T04:54:24;103597.78;;;4.84;65.85
62779;BME280;48821;48.796;2.396;2023-02-11T04:55:36;103598.66;;;4.83;65.47
62779;BME280;48821;48.796;2.396;2023-02-11T04:56:48;103591.66;;;4.82;65.77
62779;BME280;48821;48.796;2.396;2023-02-11T04:58:00;103590.69;;;4.80;65.56
62779;BME280;48821;48.796;2.396;2023-02-11T04:59:12;103587.19;;;4.79;65.74
62779;BME280;48821;48.796;2.396;2023-02-11T05:00:24;103586.34;;;4.79;65.97
62779;BME280;48821;48.796;2.396;2023-02-11T05:01:37;103579.34;;;4.78;66.01
62779;BME280;48821;48.796;2.396;2023-02-11T05:02:49;103586.25;;;4.77;65.71
62779;BME280;48821;48.796;2.396;2023-02-11T05:04:01;103582.75;;;4.77;65.41
62779;BME280;48821;48.796;2.396;2023-02-11T05:05:13;103580.09;;;4.75;65.49
62779;BME280;48821;48.796;2.396;2023-02-11T05:06:25;103582.72;;;4.75;66.01
62779;BME280;48821;48.796;2.396;2023-02-11T05:07:37;103580.06;;;4.73;65.74
62779;BME280;48821;48.796;2.396;2023-02-11T05:08:49;103573.06;;;4.72;65.70
62779;BME280;48821;48.796;2.396;2023-02-11T05:10:01;103577.47;;;4.73;66.26
62779;BME280;48821;48.796;2.396;2023-02-11T05:11:15;103568.69;;;4.71;65.63
62779;BME280;48821;48.796;2.396;2023-02-11T05:12:27;103574.72;;;4.70;65.88
62779;BME280;48821;48.796;2.396;2023-02-11T05:13:39;103569.47;;;4.69;65.92
62779;BME280;48821;48.796;2.396;2023-02-11T05:14:53;103578.09;;;4.68;65.78
62779;BME280;48821;48.796;2.396;2023-02-11T05:16:05;103563.28;;;4.67;66.13
62779;BME280;48821;48.796;2.396;2023-02-11T05:17:16;103573.66;;;4.65;66.07
62779;BME280;48821;48.796;2.396;2023-02-11T05:18:28;103568.44;;;4.65;65.70
62779;BME280;48821;48.796;2.396;2023-02-11T05:19:41;103566.69;;;4.64;65.43
62779;BME280;48821;48.796;2.396;2023-02-11T05:20:52;103564.91;;;4.63;65.92
62779;BME280;48821;48.796;2.396;2023-02-11T05:22:04;103565.72;;;4.62;65.70
62779;BME280;48821;48.796;2.396;2023-02-11T05:23:17;103557.91;;;4.62;66.13
62779;BME280;48821;48.796;2.396;2023-02-11T05:24:33;103564.84;;;4.61;65.73
62779;BME280;48821;48.796;2.396;2023-02-11T05:25:45;103566.56;;;4.61;66.03
62779;BME280;48821;48.796;2.396;2023-02-11T05:26:57;103570.00;;;4.60;65.47
62779;BME280;48821;48.796;2.396;2023-02-11T05:28:09;103573.44;;;4.59;65.79
62779;BME280;48821;48.796;2.396;2023-02-11T05:29:20;103568.22;;;4.59;65.51
62779;BME280;48821;48.796;2.396;2023-02-11T05:30:31;103559.44;;;4.57;65.34
62779;BME280;48821;48.796;2.396;2023-02-11T05:31:43;103574.22;;;4.56;65.25
62779;BME280;48821;48.796;2.396;2023-02-11T05:32:54;103569.81;;;4.55;65.70
62779;BME280;48821;48.796;2.396;2023-02-11T05:34:06;103572.41;;;4.55;65.52
62779;BME280;48821;48.796;2.396;2023-02-11T05:35:18;103569.78;;;4.54;65.36
62779;BME280;48821;48.796;2.396;2023-02-11T05:36:30;103566.22;;;4.52;65.41
62779;BME280;48821;48.796;2.396;2023-02-11T05:37:42;103566.22;;;4.52;65.24
62779;BME280;48821;48.796;2.396;2023-02-11T05:38:54;103566.22;;;4.52;65.54
62779;BME280;48821;48.796;2.396;2023-02-11T05:40:05;103565.25;;;4.49;65.29
62779;BME280;48821;48.796;2.396;2023-02-11T05:41:17;103562.59;;;4.48;65.57
62779;BME280;48821;48.796;2.396;2023-02-11T05:42:29;103563.44;;;4.47;65.79
62779;BME280;48821;48.796;2.396;2023-02-11T05:43:41;103559.09;;;4.47;65.81
62779;BME280;48821;48.796;2.396;2023-02-11T05:44:53;103557.25;;;4.45;65.57
62779;BME280;48821;48.796;2.396;2023-02-11T05:46:05;103557.25;;;4.45;65.84
62779;BME280;48821;48.796;2.396;2023-02-11T05:47:17;103561.59;;;4.44;65.90
62779;BME280;48821;48.796;2.396;2023-02-11T05:48:28;103563.31;;;4.44;65.51
62779;BME280;48821;48.796;2.396;2023-02-11T05:49:40;103565.03;;;4.43;65.32
62779;BME280;48821;48.796;2.396;2023-02-11T05:50:51;103554.56;;;4.42;65.73
62779;BME280;48821;48.796;2.396;2023-02-11T05:52:03;103557.94;;;4.39;65.47
62779;BME280;48821;48.796;2.396;2023-02-11T05:53:15;103557.97;;;4.41;65.43
62779;BME280;48821;48.796;2.396;2023-02-11T05:54:27;103562.19;;;4.37;65.68
62779;BME280;48821;48.796;2.396;2023-02-11T05:55:39;103557.00;;;4.37;65.69
62779;BME280;48821;48.796;2.396;2023-02-11T05:56:51;103562.19;;;4.37;65.27
62779;BME280;48821;48.796;2.396;2023-02-11T05:58:03;103563.81;;;4.35;65.92
62779;BME280;48821;48.796;2.396;2023-02-11T05:59:15;103567.28;;;4.34;65.44
62779;BME280;48821;48.796;2.396;2023-02-11T06:00:27;103557.69;;;4.33;65.30
62779;BME280;48821;48.796;2.396;2023-02-11T06:01:39;103561.13;;;4.32;65.81
62779;BME280;48821;48.796;2.396;2023-02-11T06:02:51;103561.94;;;4.31;65.31
62779;BME280;48821;48.796;2.396;2023-02-11T06:04:03;103567.16;;;4.31;65.30
62779;BME280;48821;48.796;2.396;2023-02-11T06:05:15;103560.19;;;4.30;65.70
62779;BME280;48821;48.796;2.396;2023-02-11T06:06:27;103559.28;;;4.29;65.63
62779;BME280;48821;48.796;2.396;2023-02-11T06:07:39;103558.41;;;4.28;65.37
62779;BME280;48821;48.796;2.396;2023-02-11T06:08:51;103556.59;;;4.27;65.58
62779;BME280;48821;48.796;2.396;2023-02-11T06:10:03;103555.75;;;4.27;65.55
62779;BME280;48821;48.796;2.396;2023-02-11T06:11:16;103548.75;;;4.26;65.32
62779;BME280;48821;48.796;2.396;2023-02-11T06:12:27;103554.75;;;4.25;65.71
62779;BME280;48821;48.796;2.396;2023-02-11T06:13:39;103547.81;;;4.24;65.49
62779;BME280;48821;48.796;2.396;2023-02-11T06:14:51;103552.94;;;4.22;65.70
62779;BME280;48821;48.796;2.396;2023-02-11T06:16:03;103549.50;;;4.23;65.98
62779;BME280;48821;48.796;2.396;2023-02-11T06:17:15;103558.13;;;4.22;65.67
62779;BME280;48821;48.796;2.396;2023-02-11T06:18:28;103553.78;;;4.21;65.40
62779;BME280;48821;48.796;2.396;2023-02-11T06:19:38;103548.53;;;4.20;65.65
62779;BME280;48821;48.796;2.396;2023-02-11T06:20:51;103555.47;;;4.21;65.51
62779;BME280;48821;48.796;2.396;2023-02-11T06:22:03;103559.78;;;4.20;65.34
62779;BME280;48821;48.796;2.396;2023-02-11T06:23:14;103559.78;;;4.20;65.64
62779;BME280;48821;48.796;2.396;2023-02-11T06:24:26;103558.94;;;4.20;65.44
62779;BME280;48821;48.796;2.396;2023-02-11T06:25:38;103559.78;;;4.20;65.53
62779;BME280;48821;48.796;2.396;2023-02-11T06:26:50;103558.03;;;4.19;65.54
62779;BME280;48821;48.796;2.396;2023-02-11T06:28:02;103563.25;;;4.19;65.20
62779;BME280;48821;48.796;2.396;2023-02-11T06:29:13;103562.34;;;4.19;65.76
62779;BME280;48821;48.796;2.396;2023-02-11T06:30:25;103567.50;;;4.17;65.76
62779;BME280;48821;48.796;2.396;2023-02-11T06:31:37;103565.72;;;4.16;65.61
62779;BME280;48821;48.796;2.396;2023-02-11T06:32:48;103575.31;;;4.17;65.17
62779;BME280;48821;48.796;2.396;2023-02-11T06:34:00;103584.84;;;4.16;65.58
62779;BME280;48821;48.796;2.396;2023-02-11T06:35:13;103579.63;;;4.16;65.58
62779;BME280;48821;48.796;2.396;2023-02-11T06:36:24;103586.53;;;4.16;65.29
62779;BME280;48821;48.796;2.396;2023-02-11T06:37:36;103584.75;;;4.15;65.41
62779;BME280;48821;48.796;2.396;2023-02-11T06:38:48;103583.91;;;4.14;65.70
62779;BME280;48821;48.796;2.396;2023-02-11T06:40:00;103586.41;;;4.13;65.41
62779;BME280;48821;48.796;2.396;2023-02-11T06:41:12;103582.06;;;4.12;65.89
62779;BME280;48821;48.796;2.396;2023-02-11T06:42:24;103591.56;;;4.11;65.33
62779;BME280;48821;48.796;2.396;2023-02-11T06:43:38;103587.13;;;4.09;65.27
62779;BME280;48821;48.796;2.396;2023-02-11T06:44:50;103582.72;;;4.08;65.58
62779;BME280;48821;48.796;2.396;2023-02-11T06:46:02;103587.06;;;4.07;65.65
62779;BME280;48821;48.796;2.396;2023-02-11T06:47:14;103588.78;;;4.07;65.83
62779;BME280;48821;48.796;2.396;2023-02-11T06:48:25;103592.19;;;4.05;65.13
62779;BME280;48821;48.796;2.396;2023-02-11T06:49:37;103586.09;;;4.05;65.66
62779;BME280;48821;48.796;2.396;2023-02-11T06:50:49;103587.00;;;4.05;65.83
62779;BME280;48821;48.796;2.396;2023-02-11T06:52:01;103586.09;;;4.05;65.20
62779;BME280;48821;48.796;2.396;2023-02-11T06:53:13;103588.66;;;4.03;65.22
62779;BME280;48821;48.796;2.396;2023-02-11T06:54:25;103591.25;;;4.03;65.60
62779;BME280;48821;48.796;2.396;2023-02-11T06:55:37;103594.75;;;4.04;65.86
62779;BME280;48821;48.796;2.396;2023-02-11T06:56:50;103594.69;;;4.02;65.71
62779;BME280;48821;48.796;2.396;2023-02-11T06:58:02;103592.09;;;4.02;65.32